sensor_id;sensor_type;location;lat;lon;timestamp;P1;durP1;ratioP1;P2;durP2;ratioP2
15198;SDS011;7700;48.654;9.070;2022-09-09T00:00:42;2.25;;;1.27;;
15198;SDS011;7700;48.654;9.070;2022-09-09T00:03:22;4.57;;;1.17;;
15198;SDS011;7700;48.654;9.070;2022-09-09T00:05:53;1.10;;;0.95;;
15198;SDS011;7700;48.654;9.070;2022-09-09T00:08:22;3.30;;;1.00;;
15198;SDS011;7700;48.654;9.070;2022-09-09T00:10:56;4.68;;;1.10;;
15198;SDS011;7700;48.654;9.070;2022-09-09T00:13:41;2.15;;;1.10;;
15198;SDS011;7700;48.654;9.070;2022-09-09T00:16:12;1.95;;;1.00;;
15198;SDS011;7700;48.654;9.070;2022-09-09T00:21:30;6.00;;;1.23;;
15198;SDS011;7700;48.654;9.070;2022-09-09T00:23:58;4.50;;;1.30;;
15198;SDS011;7700;48.654;9.070;2022-09-09T00:28:56;3.30;;;1.08;;
15198;SDS011;7700;48.654;9.070;2022-09-09T00:31:26;1.08;;;1.00;;
15198;SDS011;7700;48.654;9.070;2022-09-09T00:33:53;1.63;;;1.48;;
15198;SDS011;7700;48.654;9.070;2022-09-09T00:36:21;2.70;;;1.27;;
15198;SDS011;7700;48.654;9.070;2022-09-09T00:38:55;3.17;;;1.42;;
15198;SDS011;7700;48.654;9.070;2022-09-09T00:41:22;4.55;;;1.10;;
15198;SDS011;7700;48.654;9.070;2022-09-09T00:44:02;1.80;;;0.88;;
15198;SDS011;7700;48.654;9.070;2022-09-09T00:54:26;2.40;;;1.35;;
15198;SDS011;7700;48.654;9.070;2022-09-09T01:02:28;3.35;;;0.98;;
15198;SDS011;7700;48.654;9.070;2022-09-09T01:04:57;3.60;;;1.20;;
15198;SDS011;7700;48.654;9.070;2022-09-09T01:07:27;2.42;;;0.90;;
15198;SDS011;7700;48.654;9.070;2022-09-09T01:09:57;1.85;;;0.93;;
15198;SDS011;7700;48.654;9.070;2022-09-09T01:14:55;3.53;;;1.27;;
15198;SDS011;7700;48.654;9.070;2022-09-09T01:17:28;2.65;;;1.10;;
15198;SDS011;7700;48.654;9.070;2022-09-09T01:22:44;1.33;;;1.10;;
15198;SDS011;7700;48.654;9.070;2022-09-09T01:25:22;4.95;;;1.30;;
15198;SDS011;7700;48.654;9.070;2022-09-09T01:27:50;2.88;;;0.93;;
15198;SDS011;7700;48.654;9.070;2022-09-09T01:30:18;4.35;;;1.10;;
15198;SDS011;7700;48.654;9.070;2022-09-09T01:32:46;1.95;;;0.98;;
15198;SDS011;7700;48.654;9.070;2022-09-09T01:35:17;2.35;;;1.00;;
15198;SDS011;7700;48.654;9.070;2022-09-09T01:37:46;3.58;;;1.30;;
15198;SDS011;7700;48.654;9.070;2022-09-09T01:40:12;2.88;;;0.95;;
15198;SDS011;7700;48.654;9.070;2022-09-09T01:42:38;2.60;;;1.17;;
15198;SDS011;7700;48.654;9.070;2022-09-09T01:45:04;1.38;;;0.90;;
15198;SDS011;7700;48.654;9.070;2022-09-09T01:47:31;3.45;;;1.40;;
15198;SDS011;7700;48.654;9.070;2022-09-09T01:49:57;2.90;;;1.05;;
15198;SDS011;7700;48.654;9.070;2022-09-09T01:52:23;3.47;;;1.10;;
15198;SDS011;7700;48.654;9.070;2022-09-09T01:54:49;2.60;;;1.00;;
15198;SDS011;7700;48.654;9.070;2022-09-09T01:57:18;4.20;;;1.00;;
15198;SDS011;7700;48.654;9.070;2022-09-09T02:02:19;3.63;;;0.98;;
15198;SDS011;7700;48.654;9.070;2022-09-09T02:04:47;2.38;;;0.90;;
15198;SDS011;7700;48.654;9.070;2022-09-09T02:07:19;3.63;;;1.20;;
15198;SDS011;7700;48.654;9.070;2022-09-09T02:09:47;2.28;;;1.02;;
15198;SDS011;7700;48.654;9.070;2022-09-09T02:12:16;2.03;;;1.02;;
15198;SDS011;7700;48.654;9.070;2022-09-09T02:14:47;1.77;;;1.10;;
15198;SDS011;7700;48.654;9.070;2022-09-09T02:17:17;3.47;;;1.20;;
15198;SDS011;7700;48.654;9.070;2022-09-09T02:19:46;3.00;;;1.00;;
15198;SDS011;7700;48.654;9.070;2022-09-09T02:22:14;1.83;;;1.00;;
15198;SDS011;7700;48.654;9.070;2022-09-09T02:24:41;2.60;;;1.00;;
15198;SDS011;7700;48.654;9.070;2022-09-09T02:27:08;4.70;;;1.55;;
15198;SDS011;7700;48.654;9.070;2022-09-09T02:29:36;2.42;;;1.13;;
15198;SDS011;7700;48.654;9.070;2022-09-09T02:32:04;1.75;;;1.10;;
15198;SDS011;7700;48.654;9.070;2022-09-09T02:34:31;1.83;;;1.10;;
15198;SDS011;7700;48.654;9.070;2022-09-09T02:37:01;2.53;;;1.15;;
15198;SDS011;7700;48.654;9.070;2022-09-09T02:39:28;1.45;;;1.05;;
15198;SDS011;7700;48.654;9.070;2022-09-09T02:41:54;1.35;;;1.17;;
15198;SDS011;7700;48.654;9.070;2022-09-09T02:44:21;1.55;;;1.27;;
15198;SDS011;7700;48.654;9.070;2022-09-09T02:49:18;3.50;;;1.25;;
15198;SDS011;7700;48.654;9.070;2022-09-09T02:52:20;4.28;;;1.17;;
15198;SDS011;7700;48.654;9.070;2022-09-09T02:54:41;3.88;;;1.45;;
15198;SDS011;7700;48.654;9.070;2022-09-09T02:59:37;1.98;;;1.15;;
15198;SDS011;7700;48.654;9.070;2022-09-09T03:02:04;2.50;;;1.30;;
15198;SDS011;7700;48.654;9.070;2022-09-09T03:04:30;4.20;;;1.42;;
15198;SDS011;7700;48.654;9.070;2022-09-09T03:06:56;2.92;;;1.13;;
15198;SDS011;7700;48.654;9.070;2022-09-09T03:09:23;2.65;;;1.15;;
15198;SDS011;7700;48.654;9.070;2022-09-09T03:11:49;4.22;;;1.40;;
15198;SDS011;7700;48.654;9.070;2022-09-09T03:14:15;1.73;;;1.10;;
15198;SDS011;7700;48.654;9.070;2022-09-09T03:16:41;1.88;;;1.00;;
15198;SDS011;7700;48.654;9.070;2022-09-09T03:19:08;2.65;;;1.00;;
15198;SDS011;7700;48.654;9.070;2022-09-09T03:21:34;3.28;;;1.30;;
15198;SDS011;7700;48.654;9.070;2022-09-09T03:24:00;2.03;;;1.02;;
15198;SDS011;7700;48.654;9.070;2022-09-09T03:26:28;1.90;;;1.10;;
15198;SDS011;7700;48.654;9.070;2022-09-09T03:28:55;2.33;;;1.33;;
15198;SDS011;7700;48.654;9.070;2022-09-09T03:31:21;1.60;;;1.30;;
15198;SDS011;7700;48.654;9.070;2022-09-09T03:33:47;2.13;;;0.80;;
15198;SDS011;7700;48.654;9.070;2022-09-09T03:36:13;1.63;;;1.13;;
15198;SDS011;7700;48.654;9.070;2022-09-09T03:38:39;1.83;;;0.90;;
15198;SDS011;7700;48.654;9.070;2022-09-09T03:41:06;5.20;;;1.42;;
15198;SDS011;7700;48.654;9.070;2022-09-09T03:43:33;2.03;;;1.27;;
15198;SDS011;7700;48.654;9.070;2022-09-09T03:45:59;4.00;;;1.58;;
15198;SDS011;7700;48.654;9.070;2022-09-09T03:48:25;4.00;;;1.48;;
15198;SDS011;7700;48.654;9.070;2022-09-09T03:50:53;1.30;;;1.10;;
15198;SDS011;7700;48.654;9.070;2022-09-09T03:53:21;3.75;;;1.25;;
15198;SDS011;7700;48.654;9.070;2022-09-09T03:55:49;2.35;;;1.20;;
15198;SDS011;7700;48.654;9.070;2022-09-09T03:58:18;1.60;;;1.10;;
15198;SDS011;7700;48.654;9.070;2022-09-09T04:00:53;2.88;;;1.65;;
15198;SDS011;7700;48.654;9.070;2022-09-09T04:03:19;3.30;;;1.30;;
15198;SDS011;7700;48.654;9.070;2022-09-09T04:05:45;7.05;;;1.40;;
15198;SDS011;7700;48.654;9.070;2022-09-09T04:08:13;2.15;;;1.27;;
15198;SDS011;7700;48.654;9.070;2022-09-09T04:10:39;2.60;;;1.15;;
15198;SDS011;7700;48.654;9.070;2022-09-09T04:13:06;2.15;;;1.10;;
15198;SDS011;7700;48.654;9.070;2022-09-09T04:15:33;2.05;;;1.23;;
15198;SDS011;7700;48.654;9.070;2022-09-09T04:18:00;2.50;;;1.20;;
15198;SDS011;7700;48.654;9.070;2022-09-09T04:20:26;2.00;;;1.20;;
15198;SDS011;7700;48.654;9.070;2022-09-09T04:22:52;4.40;;;1.20;;
15198;SDS011;7700;48.654;9.070;2022-09-09T04:25:18;2.97;;;0.90;;
15198;SDS011;7700;48.654;9.070;2022-09-09T04:27:44;1.38;;;1.10;;
15198;SDS011;7700;48.654;9.070;2022-09-09T04:30:10;5.05;;;1.40;;
15198;SDS011;7700;48.654;9.070;2022-09-09T04:32:37;2.17;;;1.20;;
15198;SDS011;7700;48.654;9.070;2022-09-09T04:35:03;1.67;;;1.00;;
15198;SDS011;7700;48.654;9.070;2022-09-09T04:37:29;2.28;;;1.50;;
15198;SDS011;7700;48.654;9.070;2022-09-09T04:39:55;1.38;;;1.20;;
15198;SDS011;7700;48.654;9.070;2022-09-09T04:42:21;2.72;;;1.30;;
15198;SDS011;7700;48.654;9.070;2022-09-09T04:44:47;2.97;;;1.23;;
15198;SDS011;7700;48.654;9.070;2022-09-09T04:47:13;1.27;;;1.17;;
15198;SDS011;7700;48.654;9.070;2022-09-09T04:49:39;2.25;;;1.20;;
15198;SDS011;7700;48.654;9.070;2022-09-09T04:52:06;2.72;;;1.30;;
15198;SDS011;7700;48.654;9.070;2022-09-09T04:54:32;3.05;;;0.95;;
15198;SDS011;7700;48.654;9.070;2022-09-09T04:56:57;2.00;;;1.05;;
15198;SDS011;7700;48.654;9.070;2022-09-09T04:59:23;2.47;;;0.93;;
15198;SDS011;7700;48.654;9.070;2022-09-09T05:01:50;3.08;;;1.15;;
15198;SDS011;7700;48.654;9.070;2022-09-09T05:04:16;2.80;;;1.50;;
15198;SDS011;7700;48.654;9.070;2022-09-09T05:06:42;1.35;;;1.10;;
15198;SDS011;7700;48.654;9.070;2022-09-09T05:09:08;5.97;;;1.50;;
15198;SDS011;7700;48.654;9.070;2022-09-09T05:11:34;2.28;;;1.40;;
15198;SDS011;7700;48.654;9.070;2022-09-09T05:14:03;2.70;;;1.08;;
15198;SDS011;7700;48.654;9.070;2022-09-09T05:16:30;2.67;;;1.20;;
15198;SDS011;7700;48.654;9.070;2022-09-09T05:18:56;1.25;;;0.98;;
15198;SDS011;7700;48.654;9.070;2022-09-09T05:21:23;1.95;;;1.23;;
15198;SDS011;7700;48.654;9.070;2022-09-09T05:23:53;2.28;;;1.17;;
15198;SDS011;7700;48.654;9.070;2022-09-09T05:26:20;2.33;;;1.30;;
15198;SDS011;7700;48.654;9.070;2022-09-09T05:28:46;1.38;;;1.27;;
15198;SDS011;7700;48.654;9.070;2022-09-09T05:31:12;2.83;;;1.20;;
15198;SDS011;7700;48.654;9.070;2022-09-09T05:33:39;3.45;;;1.25;;
15198;SDS011;7700;48.654;9.070;2022-09-09T05:36:07;1.13;;;1.00;;
15198;SDS011;7700;48.654;9.070;2022-09-09T05:38:34;2.40;;;1.33;;
15198;SDS011;7700;48.654;9.070;2022-09-09T05:41:01;4.88;;;1.52;;
15198;SDS011;7700;48.654;9.070;2022-09-09T05:43:27;1.23;;;1.13;;
15198;SDS011;7700;48.654;9.070;2022-09-09T05:46:01;4.57;;;1.67;;
15198;SDS011;7700;48.654;9.070;2022-09-09T05:48:29;3.75;;;1.30;;
15198;SDS011;7700;48.654;9.070;2022-09-09T05:50:55;4.03;;;1.20;;
15198;SDS011;7700;48.654;9.070;2022-09-09T05:53:21;2.78;;;1.35;;
15198;SDS011;7700;48.654;9.070;2022-09-09T05:55:47;2.35;;;1.13;;
15198;SDS011;7700;48.654;9.070;2022-09-09T05:58:13;2.47;;;1.02;;
15198;SDS011;7700;48.654;9.070;2022-09-09T06:00:41;1.20;;;1.10;;
15198;SDS011;7700;48.654;9.070;2022-09-09T06:03:10;3.35;;;1.25;;
15198;SDS011;7700;48.654;9.070;2022-09-09T06:05:36;1.50;;;0.82;;
15198;SDS011;7700;48.654;9.070;2022-09-09T06:08:02;2.55;;;1.40;;
15198;SDS011;7700;48.654;9.070;2022-09-09T06:10:28;2.33;;;1.05;;
15198;SDS011;7700;48.654;9.070;2022-09-09T06:12:54;2.10;;;1.10;;
15198;SDS011;7700;48.654;9.070;2022-09-09T06:15:20;1.42;;;1.10;;
15198;SDS011;7700;48.654;9.070;2022-09-09T06:17:46;3.60;;;1.25;;
15198;SDS011;7700;48.654;9.070;2022-09-09T06:20:12;4.30;;;1.20;;
15198;SDS011;7700;48.654;9.070;2022-09-09T06:22:41;2.13;;;1.27;;
15198;SDS011;7700;48.654;9.070;2022-09-09T06:25:08;4.05;;;1.15;;
15198;SDS011;7700;48.654;9.070;2022-09-09T06:27:34;2.40;;;1.05;;
15198;SDS011;7700;48.654;9.070;2022-09-09T06:30:00;3.83;;;1.42;;
15198;SDS011;7700;48.654;9.070;2022-09-09T06:32:27;3.65;;;1.30;;
15198;SDS011;7700;48.654;9.070;2022-09-09T06:34:53;5.57;;;1.10;;
15198;SDS011;7700;48.654;9.070;2022-09-09T06:37:19;4.07;;;1.50;;
15198;SDS011;7700;48.654;9.070;2022-09-09T06:39:45;5.80;;;1.45;;
15198;SDS011;7700;48.654;9.070;2022-09-09T06:42:13;1.83;;;1.20;;
15198;SDS011;7700;48.654;9.070;2022-09-09T06:44:40;2.17;;;1.40;;
15198;SDS011;7700;48.654;9.070;2022-09-09T06:47:06;1.95;;;1.08;;
15198;SDS011;7700;48.654;9.070;2022-09-09T06:49:32;2.67;;;1.20;;
15198;SDS011;7700;48.654;9.070;2022-09-09T06:51:59;3.40;;;1.00;;
15198;SDS011;7700;48.654;9.070;2022-09-09T06:54:25;2.15;;;1.15;;
15198;SDS011;7700;48.654;9.070;2022-09-09T06:56:52;2.83;;;1.35;;
15198;SDS011;7700;48.654;9.070;2022-09-09T06:59:18;2.58;;;1.30;;
15198;SDS011;7700;48.654;9.070;2022-09-09T07:01:44;2.10;;;1.52;;
15198;SDS011;7700;48.654;9.070;2022-09-09T07:04:11;2.45;;;1.10;;
15198;SDS011;7700;48.654;9.070;2022-09-09T07:06:40;4.53;;;1.40;;
15198;SDS011;7700;48.654;9.070;2022-09-09T07:09:08;3.88;;;1.50;;
15198;SDS011;7700;48.654;9.070;2022-09-09T07:11:38;2.65;;;1.50;;
15198;SDS011;7700;48.654;9.070;2022-09-09T07:14:04;3.53;;;1.20;;
15198;SDS011;7700;48.654;9.070;2022-09-09T07:16:30;2.08;;;1.15;;
15198;SDS011;7700;48.654;9.070;2022-09-09T07:18:58;3.60;;;1.00;;
15198;SDS011;7700;48.654;9.070;2022-09-09T07:21:25;1.33;;;0.88;;
15198;SDS011;7700;48.654;9.070;2022-09-09T07:23:55;3.83;;;1.05;;
15198;SDS011;7700;48.654;9.070;2022-09-09T07:26:22;2.35;;;1.00;;
15198;SDS011;7700;48.654;9.070;2022-09-09T07:28:49;3.30;;;1.10;;
15198;SDS011;7700;48.654;9.070;2022-09-09T07:31:16;4.30;;;1.40;;
15198;SDS011;7700;48.654;9.070;2022-09-09T07:33:43;2.03;;;1.27;;
15198;SDS011;7700;48.654;9.070;2022-09-09T07:36:10;2.35;;;1.17;;
15198;SDS011;7700;48.654;9.070;2022-09-09T07:38:42;3.85;;;1.40;;
15198;SDS011;7700;48.654;9.070;2022-09-09T07:41:10;3.08;;;1.70;;
15198;SDS011;7700;48.654;9.070;2022-09-09T07:43:41;4.53;;;2.78;;
15198;SDS011;7700;48.654;9.070;2022-09-09T07:46:07;5.07;;;4.65;;
15198;SDS011;7700;48.654;9.070;2022-09-09T07:48:34;5.53;;;5.07;;
15198;SDS011;7700;48.654;9.070;2022-09-09T07:51:19;9.40;;;8.95;;
15198;SDS011;7700;48.654;9.070;2022-09-09T07:53:46;10.80;;;10.15;;
15198;SDS011;7700;48.654;9.070;2022-09-09T07:56:13;8.93;;;8.50;;
15198;SDS011;7700;48.654;9.070;2022-09-09T07:58:41;13.45;;;12.85;;
15198;SDS011;7700;48.654;9.070;2022-09-09T08:01:09;17.77;;;17.00;;
15198;SDS011;7700;48.654;9.070;2022-09-09T08:03:35;38.33;;;36.95;;
15198;SDS011;7700;48.654;9.070;2022-09-09T08:06:02;48.28;;;46.50;;
15198;SDS011;7700;48.654;9.070;2022-09-09T08:08:28;72.85;;;70.25;;
15198;SDS011;7700;48.654;9.070;2022-09-09T08:11:01;78.55;;;75.90;;
15198;SDS011;7700;48.654;9.070;2022-09-09T08:13:27;90.07;;;87.13;;
15198;SDS011;7700;48.654;9.070;2022-09-09T08:15:53;90.55;;;87.53;;
15198;SDS011;7700;48.654;9.070;2022-09-09T08:18:19;70.88;;;68.18;;
15198;SDS011;7700;48.654;9.070;2022-09-09T08:20:45;72.90;;;70.28;;
15198;SDS011;7700;48.654;9.070;2022-09-09T08:23:11;65.55;;;62.97;;
15198;SDS011;7700;48.654;9.070;2022-09-09T08:25:37;70.47;;;68.03;;
15198;SDS011;7700;48.654;9.070;2022-09-09T08:28:03;70.38;;;67.97;;
15198;SDS011;7700;48.654;9.070;2022-09-09T08:30:29;59.45;;;57.15;;
15198;SDS011;7700;48.654;9.070;2022-09-09T08:32:55;63.88;;;61.47;;
15198;SDS011;7700;48.654;9.070;2022-09-09T08:35:21;68.85;;;66.18;;
15198;SDS011;7700;48.654;9.070;2022-09-09T08:37:47;58.03;;;55.63;;
15198;SDS011;7700;48.654;9.070;2022-09-09T08:40:17;41.15;;;39.55;;
15198;SDS011;7700;48.654;9.070;2022-09-09T08:42:46;30.17;;;28.92;;
15198;SDS011;7700;48.654;9.070;2022-09-09T08:50:30;14.75;;;14.18;;
15198;SDS011;7700;48.654;9.070;2022-09-09T08:55:45;14.57;;;13.80;;
15198;SDS011;7700;48.654;9.070;2022-09-09T09:03:16;11.15;;;10.43;;
15198;SDS011;7700;48.654;9.070;2022-09-09T09:05:51;7.50;;;6.95;;
15198;SDS011;7700;48.654;9.070;2022-09-09T09:10:51;4.38;;;4.07;;
15198;SDS011;7700;48.654;9.070;2022-09-09T09:13:24;7.95;;;6.65;;
15198;SDS011;7700;48.654;9.070;2022-09-09T09:15:54;6.65;;;5.68;;
15198;SDS011;7700;48.654;9.070;2022-09-09T09:18:22;8.30;;;8.00;;
15198;SDS011;7700;48.654;9.070;2022-09-09T09:23:56;60.58;;;58.22;;
15198;SDS011;7700;48.654;9.070;2022-09-09T09:26:22;117.03;;;113.15;;
15198;SDS011;7700;48.654;9.070;2022-09-09T09:28:49;78.45;;;75.65;;
15198;SDS011;7700;48.654;9.070;2022-09-09T09:31:16;91.43;;;88.22;;
15198;SDS011;7700;48.654;9.070;2022-09-09T09:33:48;104.05;;;100.55;;
15198;SDS011;7700;48.654;9.070;2022-09-09T09:36:14;123.00;;;118.80;;
15198;SDS011;7700;48.654;9.070;2022-09-09T09:38:51;103.03;;;99.53;;
15198;SDS011;7700;48.654;9.070;2022-09-09T09:41:17;99.35;;;96.05;;
15198;SDS011;7700;48.654;9.070;2022-09-09T09:43:54;106.22;;;102.43;;
15198;SDS011;7700;48.654;9.070;2022-09-09T09:46:21;61.00;;;58.88;;
15198;SDS011;7700;48.654;9.070;2022-09-09T09:48:58;78.03;;;75.05;;
15198;SDS011;7700;48.654;9.070;2022-09-09T09:51:24;70.22;;;67.50;;
15198;SDS011;7700;48.654;9.070;2022-09-09T09:53:51;72.70;;;70.07;;
15198;SDS011;7700;48.654;9.070;2022-09-09T09:56:25;89.03;;;85.65;;
15198;SDS011;7700;48.654;9.070;2022-09-09T09:58:53;81.97;;;78.97;;
15198;SDS011;7700;48.654;9.070;2022-09-09T10:03:33;63.30;;;60.72;;
15198;SDS011;7700;48.654;9.070;2022-09-09T10:06:04;90.30;;;86.93;;
15198;SDS011;7700;48.654;9.070;2022-09-09T10:08:33;44.95;;;43.08;;
15198;SDS011;7700;48.654;9.070;2022-09-09T10:11:03;36.03;;;34.63;;
15198;SDS011;7700;48.654;9.070;2022-09-09T10:21:06;14.02;;;13.32;;
15198;SDS011;7700;48.654;9.070;2022-09-09T10:31:51;4.72;;;1.75;;
15198;SDS011;7700;48.654;9.070;2022-09-09T10:37:06;2.42;;;1.55;;
15198;SDS011;7700;48.654;9.070;2022-09-09T10:39:37;2.95;;;1.85;;
15198;SDS011;7700;48.654;9.070;2022-09-09T10:42:14;1.75;;;1.33;;
15198;SDS011;7700;48.654;9.070;2022-09-09T10:47:16;3.63;;;1.75;;
15198;SDS011;7700;48.654;9.070;2022-09-09T10:50:05;1.80;;;1.70;;
15198;SDS011;7700;48.654;9.070;2022-09-09T10:55:18;3.58;;;1.63;;
15198;SDS011;7700;48.654;9.070;2022-09-09T10:57:46;3.25;;;1.67;;
15198;SDS011;7700;48.654;9.070;2022-09-09T11:00:34;2.90;;;1.75;;
15198;SDS011;7700;48.654;9.070;2022-09-09T11:03:02;2.10;;;1.88;;
15198;SDS011;7700;48.654;9.070;2022-09-09T11:05:30;2.47;;;2.10;;
15198;SDS011;7700;48.654;9.070;2022-09-09T11:16:01;1.95;;;1.40;;
15198;SDS011;7700;48.654;9.070;2022-09-09T11:18:29;2.95;;;2.30;;
15198;SDS011;7700;48.654;9.070;2022-09-09T11:21:00;4.55;;;4.20;;
15198;SDS011;7700;48.654;9.070;2022-09-09T11:23:34;3.67;;;3.38;;
15198;SDS011;7700;48.654;9.070;2022-09-09T11:26:04;6.85;;;6.50;;
15198;SDS011;7700;48.654;9.070;2022-09-09T11:28:54;9.05;;;8.65;;
15198;SDS011;7700;48.654;9.070;2022-09-09T11:44:41;13.00;;;12.60;;
15198;SDS011;7700;48.654;9.070;2022-09-09T11:47:27;13.95;;;13.45;;
15198;SDS011;7700;48.654;9.070;2022-09-09T11:49:55;7.57;;;7.38;;
15198;SDS011;7700;48.654;9.070;2022-09-09T11:52:35;7.03;;;6.82;;
15198;SDS011;7700;48.654;9.070;2022-09-09T11:55:34;9.73;;;9.43;;
15198;SDS011;7700;48.654;9.070;2022-09-09T12:01:12;10.85;;;10.52;;
15198;SDS011;7700;48.654;9.070;2022-09-09T12:06:00;9.30;;;9.00;;
15198;SDS011;7700;48.654;9.070;2022-09-09T12:08:35;11.02;;;10.63;;
15198;SDS011;7700;48.654;9.070;2022-09-09T12:11:02;3.53;;;3.42;;
15198;SDS011;7700;48.654;9.070;2022-09-09T12:13:30;3.60;;;3.40;;
15198;SDS011;7700;48.654;9.070;2022-09-09T12:15:59;2.83;;;2.72;;
15198;SDS011;7700;48.654;9.070;2022-09-09T12:18:38;3.05;;;1.80;;
15198;SDS011;7700;48.654;9.070;2022-09-09T12:23:59;1.63;;;1.52;;
15198;SDS011;7700;48.654;9.070;2022-09-09T12:34:15;2.35;;;1.35;;
15198;SDS011;7700;48.654;9.070;2022-09-09T12:36:42;1.50;;;1.40;;
15198;SDS011;7700;48.654;9.070;2022-09-09T12:39:18;1.73;;;1.48;;
15198;SDS011;7700;48.654;9.070;2022-09-09T12:41:52;2.60;;;1.55;;
15198;SDS011;7700;48.654;9.070;2022-09-09T12:44:22;2.25;;;1.40;;
15198;SDS011;7700;48.654;9.070;2022-09-09T12:46:48;4.13;;;1.65;;
15198;SDS011;7700;48.654;9.070;2022-09-09T12:49:31;1.65;;;1.33;;
15198;SDS011;7700;48.654;9.070;2022-09-09T12:51:59;1.65;;;1.35;;
15198;SDS011;7700;48.654;9.070;2022-09-09T12:54:26;3.28;;;1.50;;
15198;SDS011;7700;48.654;9.070;2022-09-09T12:56:53;15.10;;;3.15;;
15198;SDS011;7700;48.654;9.070;2022-09-09T12:59:21;0.70;;;0.30;;
15198;SDS011;7700;48.654;9.070;2022-09-09T13:01:54;2.15;;;0.70;;
15198;SDS011;7700;48.654;9.070;2022-09-09T13:04:21;2.63;;;0.60;;
15198;SDS011;7700;48.654;9.070;2022-09-09T13:06:47;3.00;;;0.50;;
15198;SDS011;7700;48.654;9.070;2022-09-09T13:09:14;2.25;;;0.50;;
15198;SDS011;7700;48.654;9.070;2022-09-09T13:11:44;3.50;;;0.88;;
15198;SDS011;7700;48.654;9.070;2022-09-09T13:14:16;1.58;;;0.55;;
15198;SDS011;7700;48.654;9.070;2022-09-09T13:16:55;1.63;;;0.40;;
15198;SDS011;7700;48.654;9.070;2022-09-09T13:19:22;0.88;;;0.73;;
15198;SDS011;7700;48.654;9.070;2022-09-09T13:21:53;2.13;;;0.57;;
15198;SDS011;7700;48.654;9.070;2022-09-09T13:26:55;3.05;;;0.45;;
15198;SDS011;7700;48.654;9.070;2022-09-09T13:29:22;2.95;;;0.70;;
15198;SDS011;7700;48.654;9.070;2022-09-09T13:31:48;1.75;;;0.40;;
15198;SDS011;7700;48.654;9.070;2022-09-09T13:36:53;3.97;;;0.60;;
15198;SDS011;7700;48.654;9.070;2022-09-09T13:39:21;1.38;;;0.57;;
15198;SDS011;7700;48.654;9.070;2022-09-09T13:41:48;1.35;;;0.57;;
15198;SDS011;7700;48.654;9.070;2022-09-09T13:44:17;2.50;;;0.80;;
15198;SDS011;7700;48.654;9.070;2022-09-09T13:46:44;1.92;;;0.68;;
15198;SDS011;7700;48.654;9.070;2022-09-09T13:51:38;1.55;;;0.60;;
15198;SDS011;7700;48.654;9.070;2022-09-09T13:54:05;1.90;;;1.15;;
15198;SDS011;7700;48.654;9.070;2022-09-09T13:56:34;1.25;;;0.70;;
15198;SDS011;7700;48.654;9.070;2022-09-09T13:59:01;1.42;;;0.60;;
15198;SDS011;7700;48.654;9.070;2022-09-09T14:01:27;1.02;;;0.50;;
15198;SDS011;7700;48.654;9.070;2022-09-09T14:03:53;1.77;;;0.50;;
15198;SDS011;7700;48.654;9.070;2022-09-09T14:06:20;2.67;;;0.55;;
15198;SDS011;7700;48.654;9.070;2022-09-09T14:08:47;1.90;;;0.55;;
15198;SDS011;7700;48.654;9.070;2022-09-09T14:11:13;2.05;;;0.50;;
15198;SDS011;7700;48.654;9.070;2022-09-09T14:13:39;0.70;;;0.40;;
15198;SDS011;7700;48.654;9.070;2022-09-09T14:16:05;16.00;;;1.60;;
15198;SDS011;7700;48.654;9.070;2022-09-09T14:18:31;2.33;;;0.30;;
15198;SDS011;7700;48.654;9.070;2022-09-09T14:20:57;0.93;;;0.30;;
15198;SDS011;7700;48.654;9.070;2022-09-09T14:23:23;0.55;;;0.25;;
15198;SDS011;7700;48.654;9.070;2022-09-09T14:25:49;29.25;;;2.63;;
15198;SDS011;7700;48.654;9.070;2022-09-09T14:28:16;0.50;;;0.20;;
15198;SDS011;7700;48.654;9.070;2022-09-09T14:30:42;0.98;;;0.45;;
15198;SDS011;7700;48.654;9.070;2022-09-09T14:33:10;0.80;;;0.30;;
15198;SDS011;7700;48.654;9.070;2022-09-09T14:35:36;1.55;;;0.35;;
15198;SDS011;7700;48.654;9.070;2022-09-09T14:38:03;1.33;;;0.40;;
15198;SDS011;7700;48.654;9.070;2022-09-09T14:40:29;0.73;;;0.22;;
15198;SDS011;7700;48.654;9.070;2022-09-09T14:42:55;1.58;;;0.52;;
15198;SDS011;7700;48.654;9.070;2022-09-09T14:45:22;3.78;;;0.63;;
15198;SDS011;7700;48.654;9.070;2022-09-09T14:47:49;0.85;;;0.32;;
15198;SDS011;7700;48.654;9.070;2022-09-09T14:50:16;3.28;;;0.40;;
15198;SDS011;7700;48.654;9.070;2022-09-09T14:52:42;0.85;;;0.30;;
15198;SDS011;7700;48.654;9.070;2022-09-09T14:55:08;16.08;;;1.77;;
15198;SDS011;7700;48.654;9.070;2022-09-09T14:57:34;1.08;;;0.40;;
15198;SDS011;7700;48.654;9.070;2022-09-09T15:00:01;0.75;;;0.40;;
15198;SDS011;7700;48.654;9.070;2022-09-09T15:02:27;0.50;;;0.30;;
15198;SDS011;7700;48.654;9.070;2022-09-09T15:04:54;1.08;;;0.50;;
15198;SDS011;7700;48.654;9.070;2022-09-09T15:07:23;3.85;;;0.50;;
15198;SDS011;7700;48.654;9.070;2022-09-09T15:09:49;1.60;;;0.40;;
15198;SDS011;7700;48.654;9.070;2022-09-09T15:12:15;1.33;;;0.52;;
15198;SDS011;7700;48.654;9.070;2022-09-09T15:14:43;1.88;;;0.50;;
15198;SDS011;7700;48.654;9.070;2022-09-09T15:17:09;2.50;;;0.52;;
15198;SDS011;7700;48.654;9.070;2022-09-09T15:19:36;0.90;;;0.50;;
15198;SDS011;7700;48.654;9.070;2022-09-09T15:22:02;3.65;;;0.65;;
15198;SDS011;7700;48.654;9.070;2022-09-09T15:24:30;1.38;;;0.52;;
15198;SDS011;7700;48.654;9.070;2022-09-09T15:26:56;1.83;;;0.57;;
15198;SDS011;7700;48.654;9.070;2022-09-09T15:29:22;1.85;;;0.40;;
15198;SDS011;7700;48.654;9.070;2022-09-09T15:31:48;1.80;;;0.70;;
15198;SDS011;7700;48.654;9.070;2022-09-09T15:34:14;1.42;;;0.70;;
15198;SDS011;7700;48.654;9.070;2022-09-09T15:36:41;1.77;;;0.55;;
15198;SDS011;7700;48.654;9.070;2022-09-09T15:39:09;2.22;;;0.55;;
15198;SDS011;7700;48.654;9.070;2022-09-09T15:41:37;2.17;;;0.47;;
15198;SDS011;7700;48.654;9.070;2022-09-09T15:44:04;1.73;;;0.65;;
15198;SDS011;7700;48.654;9.070;2022-09-09T15:46:31;1.45;;;0.45;;
15198;SDS011;7700;48.654;9.070;2022-09-09T15:48:58;1.52;;;0.40;;
15198;SDS011;7700;48.654;9.070;2022-09-09T15:51:28;2.58;;;0.60;;
15198;SDS011;7700;48.654;9.070;2022-09-09T15:53:55;1.95;;;0.93;;
15198;SDS011;7700;48.654;9.070;2022-09-09T15:56:22;0.75;;;0.30;;
15198;SDS011;7700;48.654;9.070;2022-09-09T15:58:48;1.15;;;0.45;;
15198;SDS011;7700;48.654;9.070;2022-09-09T16:01:14;1.40;;;0.55;;
15198;SDS011;7700;48.654;9.070;2022-09-09T16:03:42;1.27;;;0.40;;
15198;SDS011;7700;48.654;9.070;2022-09-09T16:06:10;1.48;;;0.45;;
15198;SDS011;7700;48.654;9.070;2022-09-09T16:08:37;1.90;;;0.60;;
15198;SDS011;7700;48.654;9.070;2022-09-09T16:13:36;1.50;;;0.60;;
15198;SDS011;7700;48.654;9.070;2022-09-09T16:16:04;1.98;;;0.57;;
15198;SDS011;7700;48.654;9.070;2022-09-09T16:18:37;1.10;;;0.28;;
15198;SDS011;7700;48.654;9.070;2022-09-09T16:21:03;1.60;;;0.40;;
15198;SDS011;7700;48.654;9.070;2022-09-09T16:23:33;0.80;;;0.43;;
15198;SDS011;7700;48.654;9.070;2022-09-09T16:26:00;1.95;;;0.32;;
15198;SDS011;7700;48.654;9.070;2022-09-09T16:28:26;0.38;;;0.38;;
15198;SDS011;7700;48.654;9.070;2022-09-09T16:30:52;1.48;;;0.43;;
15198;SDS011;7700;48.654;9.070;2022-09-09T16:33:18;1.85;;;0.50;;
15198;SDS011;7700;48.654;9.070;2022-09-09T16:35:45;1.20;;;0.52;;
15198;SDS011;7700;48.654;9.070;2022-09-09T16:38:11;1.80;;;0.63;;
15198;SDS011;7700;48.654;9.070;2022-09-09T16:40:37;0.73;;;0.20;;
15198;SDS011;7700;48.654;9.070;2022-09-09T16:43:03;0.57;;;0.30;;
15198;SDS011;7700;48.654;9.070;2022-09-09T16:45:30;0.98;;;0.50;;
15198;SDS011;7700;48.654;9.070;2022-09-09T16:47:57;0.65;;;0.30;;
15198;SDS011;7700;48.654;9.070;2022-09-09T16:50:23;1.45;;;0.52;;
15198;SDS011;7700;48.654;9.070;2022-09-09T16:52:50;1.63;;;0.30;;
15198;SDS011;7700;48.654;9.070;2022-09-09T16:55:16;1.42;;;0.38;;
15198;SDS011;7700;48.654;9.070;2022-09-09T16:57:45;1.05;;;0.30;;
15198;SDS011;7700;48.654;9.070;2022-09-09T17:00:13;1.33;;;0.40;;
15198;SDS011;7700;48.654;9.070;2022-09-09T17:02:40;1.75;;;0.68;;
15198;SDS011;7700;48.654;9.070;2022-09-09T17:05:06;0.75;;;0.30;;
15198;SDS011;7700;48.654;9.070;2022-09-09T17:07:32;0.73;;;0.30;;